Date,TemperatureHighF,TemperatureAvgF,TemperatureLowF,DewpointHighF,DewpointAvgF,DewpointLowF,HumidityHigh,HumidityAvg,HumidityLow,PressureMaxIn,PressureMinIn,WindSpeedMaxMPH,WindSpeedAvgMPH,GustSpeedMaxMPH,PrecipitationSumIn
2013-6-1,78,69,64,74,67,63,99,94,77,30.70,29.83,33,10,33,3.06
2013-6-2,76,70,65,68,64,60,99,82,62,30.05,29.95,18,7,18,0.00
2013-6-3,76,67,59,62,59,55,99,77,54,30.12,30.02,14,5,14,0.00
2013-6-4,83,70,55,64,60,54,97,73,47,30.12,30.02,15,4,15,0.00
2013-6-5,86,76,65,68,64,61,95,70,48,30.05,29.87,17,4,17,0.18
2013-6-6,82,74,67,70,66,62,99,78,54,29.91,29.83,17,7,17,0.14
2013-6-7,79,71,65,66,62,59,94,75,55,29.95,29.84,22,8,23,0.00
2013-6-8,82,72,60,66,60,52,99,71,40,30.05,29.94,19,3,19,0.00
2013-6-9,68,68,68,62,61,60,81,77,76,30.05,30.04,8,5,8,0.00
2013-6-11,94,80,64,76,70,63,99,74,54,29.92,29.84,14,5,14,0.00
2013-6-12,94,86,76,76,74,71,89,68,48,29.94,29.76,24,12,24,0.00
2013-6-13,85,79,69,75,69,64,88,73,57,29.89,29.74,24,13,24,0.00
2013-6-14,84,74,60,65,62,59,97,68,46,30.00,29.89,17,4,17,0.00
2013-6-15,88,76,63,70,65,61,96,70,43,30.02,29.90,13,4,13,0.00
2013-6-16,87,79,71,74,71,68,91,77,59,29.94,29.86,12,4,12,0.00
2013-6-17,88,72,68,75,70,67,99,95,56,29.87,29.81,19,6,42,0.83
2013-6-18,87,76,66,72,68,66,99,79,54,29.91,29.77,20,6,20,0.00
2013-6-19,91,77,65,74,69,64,99,78,44,29.98,29.88,17,4,17,0.19
2013-6-20,90,80,69,74,70,68,97,74,50,30.06,29.97,14,4,14,0.00
2013-6-21,90,82,72,74,71,69,93,72,52,30.08,30.00,17,6,17,0.00
2013-6-22,90,81,70,75,70,66,93,72,47,30.08,29.96,27,7,27,0.00
2013-6-23,89,79,70,74,70,66,92,74,54,30.03,29.91,17,6,17,0.00
2013-6-24,93,81,73,77,73,68,93,79,49,30.05,29.94,21,7,21,0.00
2013-6-25,91,83,76,78,75,73,94,77,60,29.97,29.81,20,8,20,0.00
2013-6-26,91,82,75,78,74,71,94,77,58,29.88,29.68,26,10,26,0.09
2013-6-27,94,84,74,77,73,68,98,73,44,29.81,29.73,24,8,24,0.00
2013-6-28,79,76,72,73,71,70,96,87,76,29.78,29.71,8,1,8,0.00